This is the latest recevied weather packets stored in our database for station/object KB3UMW-13. If no packets are shown the sender has not sent any weather packets the latest 10 day(s).
| Time | Temp. | Humidity | Pressure | Rain* | Wind** | Luminosity | Snow |
|---|---|---|---|---|---|---|---|
| 1777395664 | 15° C | 88% | 1016 hPa | 0 mm | - | 139 W/m² | - |
| 1777395361 | 15° C | 90% | 1015.8 hPa | 0 mm | - | 128 W/m² | - |
| 1777395059 | 15° C | 87% | 1015.9 hPa | 0 mm | - | 91 W/m² | - |
| 1777394755 | 15° C | 87% | 1016 hPa | 0 mm | - | 66 W/m² | - |
| 1777394450 | 15° C | 86% | 1015.9 hPa | 0 mm | - | 88 W/m² | - |
| 1777394147 | 15° C | 85% | 1015.9 hPa | 0 mm | - | 82 W/m² | - |
| 1777393843 | 15° C | 84% | 1016.1 hPa | 0 mm | - | 115 W/m² | - |
| 1777393542 | 15.56° C | 83% | 1016.1 hPa | 0 mm | - | 107 W/m² | - |
| 1777393238 | 15.56° C | 84% | 1015.7 hPa | 0 mm | - | 140 W/m² | - |
| 1777392935 | 15.56° C | 84% | 1016.1 hPa | 0 mm | - | 202 W/m² | - |
| 1777392630 | 15.56° C | 84% | 1015.7 hPa | 0 mm | - | 199 W/m² | - |
| 1777392327 | 15.56° C | 83% | 1016 hPa | 0 mm | - | 326 W/m² | - |
| 1777392027 | 15° C | 87% | 1015.9 hPa | 0 mm | - | 187 W/m² | - |
| 1777391722 | 15° C | 86% | 1015.7 hPa | 0 mm | - | 154 W/m² | - |
| 1777391419 | 15.56° C | 81% | 1015.7 hPa | 0 mm | - | 69 W/m² | - |
| 1777391115 | 16.67° C | 81% | 1015.5 hPa | 0 mm | - | 326 W/m² | - |
| 1777390811 | 16.67° C | 83% | 1015.6 hPa | 0 mm | - | 341 W/m² | - |
| 1777390509 | 15.56° C | 85% | 1015.8 hPa | 0 mm | - | 571 W/m² | - |
| 1777390205 | 15° C | 88% | 1015.9 hPa | 0 mm | - | 554 W/m² | - |
| 1777389901 | 13.33° C | 92% | 1015.6 hPa | 0 mm | - | 374 W/m² | - |
| 1777389598 | 12.78° C | 93% | 1015.8 hPa | 0 mm | - | 240 W/m² | - |
| 1777389294 | 12.22° C | 96% | 1015.8 hPa | 0 mm | - | 253 W/m² | - |
| 1777388992 | 12.22° C | 96% | 1016 hPa | 0 mm | - | 230 W/m² | - |
| 1777388689 | 11.67° C | 98% | 1015.9 hPa | 0 mm | - | 163 W/m² | - |
| 1777388386 | 11.67° C | 98% | 1015.8 hPa | 0 mm | - | 246 W/m² | - |
* Rain latest hour (hover to see other rain measurements)
** Current wind speed in m/s (hover to see current wind gust speed)